Time;durP1;ratioP1;P1;durP2;ratioP2;P2;SDS_P1;SDS_P2;PMS_P1;PMS_P2;Temp;Humidity;BMP_temperature;BMP_pressure;BME280_temperature;BME280_humidity;BME280_pressure;Samples;Min_cycle;Max_cycle;Signal;HPM_P1;HPM_P2
2021/11/29 00:01:52;;;;;;;43.13;18.88;;;2.90;99.90;;;;;;5001902;28;20040;-54
2021/11/29 00:04:18;;;;;;;40.60;18.00;;;2.90;99.90;;;;;;5000022;28;20145;-51
2021/11/29 00:06:44;;;;;;;37.67;16.92;;;2.90;99.90;;;;;;5001842;28;20119;-51
2021/11/29 00:09:10;;;;;;;40.38;17.25;;;2.80;99.90;;;;;;4998539;28;20236;-51
2021/11/29 00:11:35;;;;;;;37.58;16.58;;;2.70;99.90;;;;;;5002462;28;20049;-52
2021/11/29 00:14:01;;;;;;;37.55;15.95;;;2.60;99.90;;;;;;5005326;28;20036;-52
2021/11/29 00:16:27;;;;;;;36.97;15.57;;;2.50;99.90;;;;;;5005640;28;20479;-51
2021/11/29 00:18:53;;;;;;;35.58;15.52;;;2.50;99.90;;;;;;5003619;28;20025;-52
2021/11/29 00:21:18;;;;;;;35.92;16.15;;;2.50;99.90;;;;;;5004935;28;20030;-51
2021/11/29 00:23:45;;;;;;;42.83;17.02;;;2.40;99.90;;;;;;5006530;28;20383;-53
2021/11/29 00:26:16;;;;;;;36.40;15.65;;;2.40;99.90;;;;;;5002001;28;20100;-50
2021/11/29 00:28:42;;;;;;;38.03;16.00;;;2.40;99.90;;;;;;5003919;28;20107;-55
2021/11/29 00:31:09;;;;;;;33.80;14.80;;;2.40;99.90;;;;;;5004854;28;20034;-53
2021/11/29 00:33:35;;;;;;;36.60;15.82;;;2.30;99.90;;;;;;5002806;28;20038;-51
2021/11/29 00:36:01;;;;;;;38.70;16.27;;;2.30;99.90;;;;;;5007885;28;20022;-51
2021/11/29 00:38:26;;;;;;;39.72;16.05;;;2.30;99.90;;;;;;5001936;28;20030;-53
2021/11/29 00:40:52;;;;;;;42.45;16.52;;;2.30;99.90;;;;;;5008022;28;20077;-51
2021/11/29 00:43:18;;;;;;;38.15;15.70;;;2.20;99.90;;;;;;5001391;28;20139;-53
2021/11/29 00:45:44;;;;;;;38.25;16.63;;;2.20;99.90;;;;;;5011624;28;20030;-50
2021/11/29 00:48:09;;;;;;;47.20;17.40;;;2.20;99.90;;;;;;5000466;28;20046;-52
2021/11/29 00:50:37;;;;;;;40.88;17.10;;;2.30;99.90;;;;;;5011555;28;20022;-51
2021/11/29 00:53:08;;;;;;;44.22;15.88;;;2.30;99.90;;;;;;5001541;28;20327;-51
2021/11/29 00:55:35;;;;;;;45.80;16.90;;;2.20;99.90;;;;;;5010105;28;20030;-50
2021/11/29 00:58:01;;;;;;;41.17;15.93;;;2.20;99.90;;;;;;5000445;28;20026;-51
2021/11/29 01:00:27;;;;;;;39.17;15.68;;;2.10;99.90;;;;;;5009975;28;20088;-50
2021/11/29 01:02:54;;;;;;;46.63;16.75;;;2.10;99.90;;;;;;5003350;28;20465;-50
2021/11/29 01:05:21;;;;;;;47.83;16.35;;;2.20;99.90;;;;;;5007673;28;20038;-51
2021/11/29 01:07:47;;;;;;;43.58;15.93;;;2.10;99.90;;;;;;5005326;28;20022;-52
2021/11/29 01:10:15;;;;;;;35.55;14.93;;;2.10;99.90;;;;;;5001731;28;20113;-51
2021/11/29 01:12:41;;;;;;;39.47;16.02;;;2.10;99.90;;;;;;5003370;28;20121;-51
2021/11/29 01:15:09;;;;;;;49.95;16.73;;;2.20;99.90;;;;;;5008722;28;20034;-51
2021/11/29 01:17:35;;;;;;;34.42;15.18;;;2.20;99.90;;;;;;5002552;28;20034;-51
2021/11/29 01:20:03;;;;;;;39.25;16.25;;;2.20;99.90;;;;;;5009766;28;20026;-51
2021/11/29 01:22:29;;;;;;;36.08;16.67;;;2.20;99.90;;;;;;5001091;28;20490;-51
2021/11/29 01:24:55;;;;;;;32.65;13.95;;;2.20;99.90;;;;;;5011127;28;20030;-51
2021/11/29 01:27:21;;;;;;;33.25;15.05;;;2.20;99.90;;;;;;5000234;28;20030;-50
2021/11/29 01:29:46;;;;;;;32.80;14.55;;;2.20;99.90;;;;;;4973165;28;20115;-51
2021/11/29 01:32:12;;;;;;;33.22;14.60;;;2.20;99.90;;;;;;4995940;28;20085;-49
2021/11/29 01:34:38;;;;;;;36.05;14.27;;;2.20;99.90;;;;;;5011160;28;20124;-50
2021/11/29 01:37:04;;;;;;;31.35;13.20;;;2.20;99.90;;;;;;5003376;28;20114;-51
2021/11/29 01:39:31;;;;;;;35.70;13.82;;;2.20;99.90;;;;;;5002839;28;20030;-53
2021/11/29 01:41:57;;;;;;;33.08;14.15;;;2.20;99.90;;;;;;5005225;28;20057;-50
2021/11/29 01:44:23;;;;;;;35.65;14.18;;;2.30;99.90;;;;;;5007182;28;20388;-51
2021/11/29 01:46:49;;;;;;;35.42;15.50;;;2.30;99.90;;;;;;5004226;28;20025;-51
2021/11/29 01:49:15;;;;;;;30.58;13.30;;;2.30;99.90;;;;;;5007436;28;20026;-52
2021/11/29 01:51:41;;;;;;;33.38;14.80;;;2.20;99.90;;;;;;5010741;28;20464;-50
2021/11/29 01:54:08;;;;;;;34.05;14.52;;;2.20;99.90;;;;;;5008137;28;20064;-49
2021/11/29 01:56:34;;;;;;;33.15;14.25;;;2.10;99.90;;;;;;5003837;28;20053;-51
2021/11/29 01:58:59;;;;;;;33.05;13.77;;;2.20;99.90;;;;;;5003301;28;20096;-51
2021/11/29 02:01:26;;;;;;;30.70;13.80;;;2.10;99.90;;;;;;5000187;28;20495;-51
2021/11/29 02:03:57;;;;;;;32.53;13.05;;;2.10;99.90;;;;;;4998667;28;20061;-51
2021/11/29 02:06:25;;;;;;;31.60;13.50;;;2.10;99.90;;;;;;5001519;28;20031;-51
2021/11/29 02:08:51;;;;;;;31.63;13.80;;;2.10;99.90;;;;;;5002676;28;20105;-50
2021/11/29 02:11:17;;;;;;;30.55;12.43;;;2.10;99.90;;;;;;5008173;28;20088;-50
2021/11/29 02:13:43;;;;;;;33.58;14.40;;;2.10;99.90;;;;;;5003039;28;20129;-51
2021/11/29 02:16:09;;;;;;;27.17;12.88;;;2.10;99.90;;;;;;5009628;28;20310;-51
2021/11/29 02:18:40;;;;;;;32.60;13.63;;;2.00;99.90;;;;;;5000965;28;20034;-51
2021/11/29 02:21:05;;;;;;;38.75;14.25;;;1.90;99.90;;;;;;5011058;28;20034;-51
2021/11/29 02:23:34;;;;;;;31.02;13.25;;;1.90;99.90;;;;;;5000465;28;20038;-54
2021/11/29 02:26:00;;;;;;;36.90;13.20;;;2.00;99.90;;;;;;5006167;28;20029;-51
2021/11/29 02:28:26;;;;;;;29.48;12.43;;;1.90;99.90;;;;;;5002614;28;20041;-51
2021/11/29 02:30:51;;;;;;;39.38;12.50;;;1.90;99.90;;;;;;5005760;28;20033;-51
2021/11/29 02:33:17;;;;;;;36.08;12.90;;;1.80;99.90;;;;;;5004773;28;20038;-51
2021/11/29 02:35:43;;;;;;;28.60;11.63;;;1.90;99.90;;;;;;5008586;28;20488;-51
2021/11/29 02:38:09;;;;;;;34.13;12.93;;;1.90;99.90;;;;;;4990530;28;20072;-51
2021/11/29 02:40:35;;;;;;;28.45;11.98;;;1.80;99.90;;;;;;4998676;28;20468;-50
2021/11/29 02:43:00;;;;;;;37.50;11.40;;;1.90;99.90;;;;;;5004305;28;20108;-51
2021/11/29 02:45:27;;;;;;;60.38;12.70;;;1.80;99.90;;;;;;5006803;28;20026;-50
2021/11/29 02:47:54;;;;;;;82.47;11.65;;;1.80;99.90;;;;;;5003757;28;20026;-52
2021/11/29 02:50:20;;;;;;;81.97;12.38;;;1.70;99.90;;;;;;5009053;28;20429;-50
2021/11/29 02:52:46;;;;;;;48.25;11.52;;;1.60;99.90;;;;;;5001427;28;20046;-50
2021/11/29 02:55:13;;;;;;;54.80;10.65;;;1.50;99.90;;;;;;5002487;28;20560;-51
2021/11/29 02:57:39;;;;;;;36.10;10.55;;;1.50;99.90;;;;;;4999416;28;20030;-50
2021/11/29 03:00:07;;;;;;;54.33;11.98;;;1.40;99.90;;;;;;4987923;28;20073;-51
2021/11/29 03:02:34;;;;;;;61.70;11.70;;;1.40;99.90;;;;;;5004100;28;20026;-52
2021/11/29 03:05:01;;;;;;;62.00;12.18;;;1.50;99.90;;;;;;4997339;28;20481;-51
2021/11/29 03:07:26;;;;;;;70.00;10.90;;;1.40;99.90;;;;;;5000074;28;20360;-50
2021/11/29 03:09:52;;;;;;;45.22;11.77;;;1.40;99.90;;;;;;5005877;28;20031;-50
2021/11/29 03:12:18;;;;;;;32.35;9.93;;;1.40;99.90;;;;;;4998811;28;20015;-51
2021/11/29 03:14:44;;;;;;;53.67;9.57;;;1.40;99.90;;;;;;5007785;28;20030;-51
2021/11/29 03:17:11;;;;;;;30.58;10.70;;;1.40;99.90;;;;;;4998165;28;20057;-50
2021/11/29 03:19:39;;;;;;;19.60;8.50;;;1.40;99.90;;;;;;5008517;28;20491;-51
2021/11/29 03:22:09;;;;;;;20.08;9.27;;;1.40;99.90;;;;;;4996915;28;20081;-50
2021/11/29 03:24:36;;;;;;;18.80;9.23;;;1.50;99.90;;;;;;5009274;28;20033;-49
2021/11/29 03:27:02;;;;;;;21.42;9.68;;;1.60;99.90;;;;;;4998482;28;20491;-50
2021/11/29 03:29:28;;;;;;;19.02;8.68;;;1.60;99.90;;;;;;5007249;28;20058;-51
2021/11/29 03:31:57;;;;;;;17.02;8.73;;;1.60;99.90;;;;;;4999672;28;20065;-50
2021/11/29 03:34:23;;;;;;;15.27;7.97;;;1.60;99.90;;;;;;5006582;28;20076;-50
2021/11/29 03:36:50;;;;;;;15.50;7.60;;;1.70;99.90;;;;;;5001410;28;20030;-53
2021/11/29 03:39:22;;;;;;;15.13;7.65;;;1.70;99.90;;;;;;5005039;28;20499;-50
2021/11/29 03:41:48;;;;;;;;;;;1.70;99.90;;;;;;5001602;28;20031;-52
2021/11/29 03:44:14;;;;;;;12.48;6.97;;;1.70;99.90;;;;;;4999653;28;19952;-50
2021/11/29 03:46:42;;;;;;;14.63;8.07;;;1.70;99.90;;;;;;5001252;28;20022;-50
2021/11/29 03:49:08;;;;;;;15.15;7.63;;;1.70;99.90;;;;;;5004451;28;20431;-50
2021/11/29 03:51:34;;;;;;;14.60;7.65;;;1.70;99.90;;;;;;5001723;28;20030;-50
2021/11/29 03:54:00;;;;;;;15.27;7.28;;;1.80;99.90;;;;;;5005364;28;20076;-50
2021/11/29 03:56:26;;;;;;;17.08;7.72;;;1.70;99.90;;;;;;5001744;28;20034;-54
2021/11/29 03:58:52;;;;;;;14.95;7.72;;;1.70;99.90;;;;;;5004313;28;20121;-49
2021/11/29 04:01:17;;;;;;;18.52;8.95;;;1.70;99.90;;;;;;5001650;28;20060;-51
2021/11/29 04:03:43;;;;;;;22.33;9.75;;;1.70;99.90;;;;;;5007084;28;20037;-53
2021/11/29 04:06:09;;;;;;;22.27;10.05;;;1.70;99.90;;;;;;5001320;28;20030;-49
2021/11/29 04:08:35;;;;;;;20.48;10.05;;;1.70;99.90;;;;;;5006481;28;20030;-52
2021/11/29 04:11:01;;;;;;;22.67;10.82;;;1.90;99.90;;;;;;4997707;28;20033;-53
2021/11/29 04:13:27;;;;;;;19.15;9.40;;;1.70;99.90;;;;;;4989328;28;20113;-52
2021/11/29 04:15:53;;;;;;;19.60;9.63;;;1.80;99.90;;;;;;4997695;28;20121;-50
2021/11/29 04:18:19;;;;;;;20.08;10.15;;;1.80;99.90;;;;;;5005441;28;20026;-50
2021/11/29 04:20:44;;;;;;;19.88;10.13;;;1.80;99.90;;;;;;4996696;28;20033;-50
2021/11/29 04:23:10;;;;;;;21.67;10.38;;;1.80;99.90;;;;;;5004210;28;20038;-51
2021/11/29 04:25:47;;;;;;;20.60;10.23;;;1.80;99.90;;;;;;4998828;28;20026;-51
2021/11/29 04:28:13;;;;;;;24.65;10.52;;;1.80;99.90;;;;;;5004015;28;20100;-50
2021/11/29 04:30:39;;;;;;;20.60;9.73;;;1.80;99.90;;;;;;4999580;28;20136;-50
2021/11/29 04:33:05;;;;;;;22.80;10.93;;;1.80;99.90;;;;;;5003886;28;20034;-51
2021/11/29 04:35:31;;;;;;;26.73;11.30;;;1.80;99.90;;;;;;5001156;28;20026;-51
2021/11/29 04:37:57;;;;;;;27.00;11.57;;;1.80;99.90;;;;;;5001944;28;20510;-50
2021/11/29 04:40:23;;;;;;;23.25;10.80;;;1.80;99.90;;;;;;5002663;28;20079;-50
2021/11/29 04:42:49;;;;;;;24.55;10.93;;;1.80;99.90;;;;;;5001414;28;20041;-50
2021/11/29 04:45:15;;;;;;;23.45;10.60;;;1.80;99.90;;;;;;5003289;28;20369;-50
2021/11/29 04:47:40;;;;;;;24.73;11.82;;;1.70;99.90;;;;;;5001294;28;20392;-50
2021/11/29 04:50:07;;;;;;;24.23;11.73;;;1.70;99.90;;;;;;5003985;28;20026;-52
2021/11/29 04:52:34;;;;;;;26.42;12.02;;;1.70;99.90;;;;;;5001475;28;20018;-50
2021/11/29 04:55:00;;;;;;;25.23;11.57;;;1.70;99.90;;;;;;5005251;28;20240;-50
2021/11/29 04:57:26;;;;;;;26.73;12.40;;;1.70;99.90;;;;;;5001230;28;20495;-50
2021/11/29 04:59:54;;;;;;;29.95;14.00;;;1.70;99.90;;;;;;5007810;28;20116;-51
2021/11/29 05:02:20;;;;;;;27.45;12.20;;;1.70;99.90;;;;;;5002684;28;20100;-49
2021/11/29 05:04:46;;;;;;;26.40;12.45;;;1.70;99.90;;;;;;5001177;28;20037;-51
2021/11/29 05:07:13;;;;;;;25.60;12.35;;;1.60;99.90;;;;;;5007670;28;20026;-51
2021/11/29 05:09:41;;;;;;;28.27;12.57;;;1.60;99.90;;;;;;5000741;28;20030;-51
2021/11/29 05:12:14;;;;;;;26.83;12.15;;;1.60;99.90;;;;;;5005327;28;20476;-51
2021/11/29 05:14:40;;;;;;;26.75;11.75;;;1.60;99.90;;;;;;5000743;28;20042;-49
2021/11/29 05:17:06;;;;;;;22.42;10.82;;;1.60;99.90;;;;;;5006645;28;20030;-52
2021/11/29 05:19:32;;;;;;;22.50;10.80;;;1.70;99.90;;;;;;5002512;28;20040;-51
2021/11/29 05:21:57;;;;;;;20.60;10.23;;;1.70;99.90;;;;;;5005763;28;20054;-53
2021/11/29 05:24:23;;;;;;;19.98;9.75;;;1.70;99.90;;;;;;5004828;28;20046;-50
2021/11/29 05:26:50;;;;;;;20.23;8.80;;;1.60;99.90;;;;;;5004434;28;20092;-51
2021/11/29 05:29:16;;;;;;;21.15;10.48;;;1.50;99.90;;;;;;5005570;28;20101;-51
2021/11/29 05:31:45;;;;;;;23.00;10.07;;;1.50;99.90;;;;;;5003928;28;20479;-50
2021/11/29 05:34:11;;;;;;;21.67;9.52;;;1.50;99.90;;;;;;5006057;28;20491;-51
2021/11/29 05:36:37;;;;;;;21.10;10.15;;;1.40;99.90;;;;;;5003949;28;20034;-49
2021/11/29 05:39:03;;;;;;;17.83;8.77;;;1.40;99.90;;;;;;5006323;28;20057;-52
2021/11/29 05:41:29;;;;;;;21.80;9.82;;;1.30;99.90;;;;;;5002726;28;20034;-49
2021/11/29 05:43:55;;;;;;;19.48;9.50;;;1.40;99.90;;;;;;5007408;28;20546;-53
2021/11/29 05:46:22;;;;;;;20.60;9.88;;;1.40;99.90;;;;;;4999909;28;20442;-50
2021/11/29 05:48:49;;;;;;;19.42;9.68;;;1.40;99.90;;;;;;4980882;28;20101;-53
2021/11/29 05:51:16;;;;;;;23.08;10.30;;;1.30;99.90;;;;;;5003210;28;20096;-53
2021/11/29 05:53:42;;;;;;;25.73;10.38;;;1.30;99.90;;;;;;5008579;28;20137;-51
2021/11/29 05:56:08;;;;;;;22.45;9.80;;;1.40;99.90;;;;;;5001737;28;20034;-49
2021/11/29 05:58:35;;;;;;;22.42;10.65;;;1.40;99.90;;;;;;5008823;28;20030;-50
2021/11/29 06:01:01;;;;;;;29.27;9.30;;;1.50;99.90;;;;;;5002176;28;20038;-51
2021/11/29 06:03:27;;;;;;;25.05;11.27;;;1.40;99.90;;;;;;5001266;28;20464;-52
2021/11/29 06:05:53;;;;;;;25.73;10.75;;;1.40;99.90;;;;;;4999458;28;20430;-54
2021/11/29 06:08:19;;;;;;;23.70;10.65;;;1.40;99.90;;;;;;5006755;28;20118;-53
2021/11/29 06:10:44;;;;;;;48.75;11.95;;;1.40;99.90;;;;;;4997281;28;20153;-52
2021/11/29 06:13:10;;;;;;;34.75;10.20;;;1.50;99.90;;;;;;5005944;28;20037;-51
2021/11/29 06:15:36;;;;;;;43.03;14.25;;;1.50;99.90;;;;;;5000771;28;20030;-51
2021/11/29 06:18:02;;;;;;;29.63;12.95;;;1.50;99.90;;;;;;5004320;28;20088;-52
2021/11/29 06:20:27;;;;;;;42.58;12.77;;;1.50;99.90;;;;;;5002629;28;20060;-52
2021/11/29 06:22:54;;;;;;;39.28;12.77;;;1.60;99.90;;;;;;4999473;28;20026;-52
2021/11/29 06:25:22;;;;;;;30.85;10.95;;;1.60;99.90;;;;;;4999552;28;20031;-51
2021/11/29 06:27:48;;;;;;;30.23;12.45;;;1.60;99.90;;;;;;4972650;28;20393;-53
2021/11/29 06:30:14;;;;;;;32.95;13.05;;;1.60;99.90;;;;;;4997464;28;20061;-48
2021/11/29 06:32:41;;;;;;;30.63;12.48;;;1.60;99.90;;;;;;5009515;28;20463;-53
2021/11/29 06:35:08;;;;;;;29.33;11.65;;;1.60;99.90;;;;;;4990794;28;20066;-51
2021/11/29 06:37:34;;;;;;;27.08;13.20;;;1.60;99.90;;;;;;4989844;28;20030;-48
2021/11/29 06:40:00;;;;;;;25.58;11.48;;;1.70;99.90;;;;;;4975279;28;20035;-48
2021/11/29 06:42:26;;;;;;;26.42;12.07;;;1.70;99.90;;;;;;4971922;28;20033;-50
2021/11/29 06:44:52;;;;;;;24.17;11.65;;;1.70;99.90;;;;;;4995299;28;20033;-49
2021/11/29 06:47:18;;;;;;;27.00;12.35;;;1.70;99.90;;;;;;5006701;28;20486;-48
2021/11/29 06:49:44;;;;;;;23.85;11.48;;;1.70;99.90;;;;;;5003054;28;20022;-48
2021/11/29 06:52:09;;;;;;;25.95;12.18;;;1.70;99.90;;;;;;5005184;28;20075;-48
2021/11/29 06:54:37;;;;;;;26.77;12.25;;;1.80;99.90;;;;;;4998105;28;20364;-48
2021/11/29 06:57:04;;;;;;;22.92;11.38;;;1.80;99.90;;;;;;4995130;28;20045;-51
2021/11/29 06:59:31;;;;;;;24.20;11.82;;;1.80;99.90;;;;;;4998317;28;20022;-47
2021/11/29 07:01:57;;;;;;;25.17;12.52;;;1.80;99.90;;;;;;5003483;28;20036;-48
2021/11/29 07:04:23;;;;;;;26.73;11.80;;;1.80;99.90;;;;;;5007509;28;20021;-50
2021/11/29 07:06:49;;;;;;;28.70;13.02;;;1.80;99.90;;;;;;5001268;28;20371;-48
2021/11/29 07:09:15;;;;;;;26.90;12.23;;;1.80;99.90;;;;;;5001255;28;20048;-48
2021/11/29 07:11:41;;;;;;;25.95;11.68;;;1.90;99.90;;;;;;4994510;28;20555;-48
2021/11/29 07:14:08;;;;;;;22.63;11.55;;;1.90;99.90;;;;;;5001905;28;20037;-51
2021/11/29 07:16:35;;;;;;;27.27;12.27;;;1.90;99.90;;;;;;5010172;28;20492;-50
2021/11/29 07:19:02;;;;;;;25.52;11.70;;;1.90;99.90;;;;;;4989910;28;20069;-51
2021/11/29 07:21:28;;;;;;;24.67;12.13;;;1.90;99.90;;;;;;4989327;28;20027;-50
2021/11/29 07:23:54;;;;;;;26.38;12.55;;;1.90;99.90;;;;;;5001585;28;20100;-49
2021/11/29 07:26:20;;;;;;;25.45;12.18;;;1.90;99.90;;;;;;5004087;28;20493;-48
2021/11/29 07:28:46;;;;;;;26.08;12.05;;;1.90;99.90;;;;;;5001795;28;20068;-51
2021/11/29 07:31:11;;;;;;;24.65;12.25;;;1.90;99.90;;;;;;5005999;28;20029;-51
2021/11/29 07:33:37;;;;;;;25.45;12.07;;;1.80;99.90;;;;;;4998863;28;20464;-51
2021/11/29 07:36:03;;;;;;;24.88;11.52;;;1.80;99.90;;;;;;4996619;28;20054;-48
2021/11/29 07:38:29;;;;;;;28.13;12.68;;;1.80;99.90;;;;;;5001386;28;20080;-48
2021/11/29 07:40:55;;;;;;;24.27;11.38;;;1.70;99.90;;;;;;5000830;28;20507;-48
2021/11/29 07:43:21;;;;;;;30.13;13.32;;;1.80;99.90;;;;;;4998316;28;20081;-48
2021/11/29 07:45:47;;;;;;;28.33;13.40;;;1.80;99.90;;;;;;4971216;28;20077;-48
2021/11/29 07:48:13;;;;;;;33.22;14.25;;;1.80;99.90;;;;;;4996308;28;20030;-48
2021/11/29 07:50:38;;;;;;;29.85;14.05;;;1.90;99.90;;;;;;5000356;28;20034;-49
2021/11/29 07:53:05;;;;;;;31.65;14.35;;;1.80;99.90;;;;;;5003643;28;20540;-48
2021/11/29 07:55:32;;;;;;;32.50;13.70;;;1.90;99.90;;;;;;5003491;28;20022;-48
2021/11/29 07:58:00;;;;;;;31.20;13.52;;;1.90;99.90;;;;;;5002350;28;20033;-47
2021/11/29 08:00:28;;;;;;;32.20;14.75;;;1.90;99.90;;;;;;4995424;28;20045;-47
2021/11/29 08:02:57;;;;;;;34.78;15.05;;;1.90;99.90;;;;;;5001381;28;20527;-47
2021/11/29 08:05:24;;;;;;;32.38;14.25;;;1.90;99.90;;;;;;5005165;28;20077;-47
2021/11/29 08:07:52;;;;;;;31.48;13.93;;;1.90;99.90;;;;;;5001766;28;20058;-47
2021/11/29 08:10:19;;;;;;;33.33;14.15;;;1.90;99.90;;;;;;5005675;28;20357;-54
2021/11/29 08:12:46;;;;;;;30.13;12.88;;;1.90;99.90;;;;;;5001643;28;20384;-55
2021/11/29 08:15:12;;;;;;;33.33;14.68;;;2.00;99.90;;;;;;5006309;28;20095;-47
2021/11/29 08:17:38;;;;;;;31.05;13.20;;;2.10;99.90;;;;;;4990714;28;20037;-47
2021/11/29 08:20:06;;;;;;;30.55;14.20;;;2.10;99.90;;;;;;5000173;28;20022;-47
2021/11/29 08:22:31;;;;;;;33.28;14.25;;;2.10;99.90;;;;;;4999032;28;20033;-52
2021/11/29 08:24:57;;;;;;;32.95;14.82;;;2.20;99.90;;;;;;4997629;28;20345;-53
2021/11/29 08:27:23;;;;;;;33.67;14.95;;;2.20;99.90;;;;;;4983930;28;20027;-60
2021/11/29 08:29:49;;;;;;;33.35;15.45;;;2.20;99.90;;;;;;4990877;28;20022;-64
2021/11/29 08:32:16;;;;;;;34.13;15.50;;;2.20;99.90;;;;;;4989315;28;20463;-62
2021/11/29 08:34:43;;;;;;;34.08;15.82;;;2.20;99.90;;;;;;5000451;28;20387;-61
2021/11/29 08:37:09;;;;;;;35.38;15.13;;;2.20;99.90;;;;;;5007499;28;20026;-62
2021/11/29 08:39:36;;;;;;;35.17;15.82;;;2.30;99.90;;;;;;5005908;28;20049;-62
2021/11/29 08:42:03;;;;;;;37.55;15.38;;;2.30;99.90;;;;;;5006489;28;20543;-62
2021/11/29 08:44:29;;;;;;;38.58;16.67;;;2.30;99.90;;;;;;5006906;28;20072;-62
2021/11/29 08:46:56;;;;;;;35.10;16.75;;;2.30;99.90;;;;;;5004187;28;20062;-61
2021/11/29 08:49:25;;;;;;;43.17;16.70;;;2.30;99.90;;;;;;5002167;28;20022;-63
2021/11/29 08:51:51;;;;;;;42.72;18.85;;;2.40;99.90;;;;;;4992819;28;20526;-64
2021/11/29 08:54:17;;;;;;;37.08;16.52;;;2.40;99.90;;;;;;4997970;28;20456;-62
2021/11/29 08:56:45;;;;;;;37.78;16.52;;;2.40;99.90;;;;;;5001765;28;20026;-62
2021/11/29 08:59:11;;;;;;;50.30;17.25;;;2.40;99.90;;;;;;4997911;28;20041;-61
2021/11/29 09:01:37;;;;;;;37.88;17.02;;;2.30;99.90;;;;;;5002495;28;20356;-53
2021/11/29 09:04:03;;;;;;;38.95;16.67;;;2.30;99.90;;;;;;4997301;28;20460;-49
2021/11/29 09:06:29;;;;;;;42.65;17.67;;;2.30;99.90;;;;;;5004273;28;20026;-49
2021/11/29 09:08:55;;;;;;;40.58;17.02;;;2.30;99.90;;;;;;5004423;28;20022;-48
2021/11/29 09:11:20;;;;;;;37.85;16.23;;;2.30;99.90;;;;;;4995451;28;20041;-51
2021/11/29 09:13:47;;;;;;;41.05;16.85;;;2.30;99.90;;;;;;4986746;28;20021;-49
2021/11/29 09:16:15;;;;;;;39.47;16.23;;;2.30;99.90;;;;;;4995475;28;20026;-49
2021/11/29 09:18:41;;;;;;;38.80;16.60;;;2.40;99.90;;;;;;5001530;28;20030;-49
2021/11/29 09:21:11;;;;;;;46.95;17.73;;;2.40;99.90;;;;;;5005163;28;20084;-52
2021/11/29 09:23:37;;;;;;;47.60;18.85;;;2.40;99.90;;;;;;5002106;28;20463;-50
2021/11/29 09:26:03;;;;;;;43.83;17.90;;;2.40;99.90;;;;;;5006560;28;20101;-49
2021/11/29 09:28:29;;;;;;;41.97;15.90;;;2.50;99.90;;;;;;4999848;28;20041;-49
2021/11/29 09:30:55;;;;;;;41.10;17.05;;;2.60;99.90;;;;;;5000013;28;20022;-52
2021/11/29 09:33:21;;;;;;;41.75;17.08;;;2.60;99.90;;;;;;4998591;28;20046;-52
2021/11/29 09:35:47;;;;;;;42.40;16.50;;;2.60;99.90;;;;;;4971581;28;20097;-51
2021/11/29 09:38:13;;;;;;;39.55;16.33;;;2.60;99.90;;;;;;4994671;28;20432;-48
2021/11/29 09:40:43;;;;;;;41.22;17.10;;;2.60;99.90;;;;;;5010561;28;20105;-48
2021/11/29 09:43:12;;;;;;;37.13;16.23;;;2.60;99.90;;;;;;4999212;28;20077;-53
2021/11/29 09:45:40;;;;;;;33.53;15.43;;;2.70;99.90;;;;;;5009428;28;20033;-49
2021/11/29 09:48:10;;;;;;;40.25;16.15;;;2.80;99.90;;;;;;5000031;28;20054;-50
2021/11/29 09:50:38;;;;;;;34.10;15.00;;;2.90;99.90;;;;;;5003619;28;20018;-51
2021/11/29 09:53:04;;;;;;;31.92;14.35;;;3.00;99.90;;;;;;5000724;28;20125;-49
2021/11/29 09:55:30;;;;;;;31.88;15.13;;;3.00;99.90;;;;;;5009190;28;20032;-49
2021/11/29 09:57:58;;;;;;;33.30;14.20;;;3.10;99.90;;;;;;5002324;28;20110;-51
2021/11/29 10:00:31;;;;;;;27.10;14.40;;;3.20;99.90;;;;;;5008224;28;20471;-49
2021/11/29 10:02:58;;;;;;;23.85;12.77;;;3.40;99.90;;;;;;5003172;28;20038;-56
2021/11/29 10:05:25;;;;;;;25.70;13.35;;;3.50;99.90;;;;;;5007842;28;20383;-52
2021/11/29 10:07:52;;;;;;;26.58;13.30;;;3.60;99.90;;;;;;4997896;28;20443;-57
2021/11/29 10:10:26;;;;;;;25.48;12.38;;;3.60;99.90;;;;;;5002559;28;20419;-49
2021/11/29 10:13:10;;;;;;;26.15;12.68;;;3.60;99.90;;;;;;5001211;28;20419;-50
2021/11/29 10:15:40;;;;;;;27.65;13.38;;;3.60;99.90;;;;;;4993776;28;20046;-53
2021/11/29 10:18:21;;;;;;;25.35;12.57;;;3.60;99.90;;;;;;5001953;28;20357;-50
2021/11/29 10:20:56;;;;;;;27.23;12.85;;;3.70;99.90;;;;;;4997196;28;20041;-50
2021/11/29 10:23:27;;;;;;;28.08;13.20;;;3.70;99.90;;;;;;5001454;28;20030;-51
2021/11/29 10:25:53;;;;;;;25.10;11.90;;;3.70;99.90;;;;;;4990382;28;20484;-49
2021/11/29 10:28:28;;;;;;;25.38;11.77;;;3.70;99.90;;;;;;4997957;28;20032;-49
2021/11/29 10:31:14;;;;;;;24.88;12.73;;;3.80;99.90;;;;;;4972137;28;20115;-51
2021/11/29 10:34:09;;;;;;;22.58;11.70;;;3.80;99.90;;;;;;4990614;28;20492;-50
2021/11/29 10:36:39;;;;;;;21.38;10.85;;;3.80;99.90;;;;;;4983893;28;20046;-49
2021/11/29 10:39:12;;;;;;;20.05;11.02;;;3.80;99.90;;;;;;4983652;28;20049;-51
2021/11/29 10:41:41;;;;;;;20.25;10.60;;;3.90;99.90;;;;;;4992308;28;20038;-49
2021/11/29 10:44:12;;;;;;;19.08;9.90;;;3.90;99.90;;;;;;5002221;28;20034;-48
2021/11/29 10:46:42;;;;;;;22.37;10.23;;;3.90;99.90;;;;;;4999228;28;20434;-49
2021/11/29 10:49:12;;;;;;;19.63;10.18;;;3.90;99.90;;;;;;5004343;28;20033;-49
2021/11/29 10:51:39;;;;;;;16.20;8.98;;;3.90;99.90;;;;;;4999239;28;20030;-49
2021/11/29 10:54:11;;;;;;;13.55;7.47;;;3.90;99.90;;;;;;5001934;28;20026;-49
2021/11/29 10:56:39;;;;;;;13.63;7.57;;;3.90;99.90;;;;;;5000961;28;20038;-50
2021/11/29 10:59:09;;;;;;;13.00;7.78;;;4.00;99.90;;;;;;5003826;28;20034;-49
2021/11/29 11:01:38;;;;;;;13.70;7.38;;;4.10;99.90;;;;;;5001723;28;20037;-50
2021/11/29 11:04:06;;;;;;;14.13;7.25;;;4.20;99.90;;;;;;5003779;28;20038;-52
2021/11/29 11:06:38;;;;;;;11.82;7.05;;;4.20;99.90;;;;;;5002336;28;20026;-52
2021/11/29 11:09:34;;;;;;;14.07;7.63;;;4.20;99.90;;;;;;5003818;28;20041;-52
2021/11/29 11:12:04;;;;;;;13.02;7.70;;;4.20;99.90;;;;;;4999117;28;20174;-51
2021/11/29 11:14:33;;;;;;;11.75;7.18;;;4.30;99.90;;;;;;5004144;28;20030;-52
2021/11/29 11:17:10;;;;;;;13.07;6.68;;;4.20;99.90;;;;;;4992935;28;20042;-52
2021/11/29 11:19:58;;;;;;;12.32;7.28;;;4.30;99.90;;;;;;4998198;28;20086;-52
2021/11/29 11:22:28;;;;;;;9.20;5.88;;;4.40;99.90;;;;;;4990807;28;20038;-51
2021/11/29 11:25:00;;;;;;;11.10;6.03;;;4.40;99.90;;;;;;5005309;28;20393;-51
2021/11/29 11:27:30;;;;;;;9.60;6.22;;;4.50;99.90;;;;;;4991957;28;20030;-56
2021/11/29 11:30:00;;;;;;;12.63;7.00;;;4.50;99.90;;;;;;4989792;28;20018;-50
2021/11/29 11:32:38;;;;;;;13.18;6.90;;;4.40;99.90;;;;;;5006397;28;20369;-50
2021/11/29 11:35:14;;;;;;;8.30;4.82;;;4.40;99.90;;;;;;4992183;28;20030;-50
2021/11/29 11:37:45;;;;;;;9.80;6.15;;;4.30;99.90;;;;;;5005022;28;20580;-51
2021/11/29 11:40:15;;;;;;;10.30;5.88;;;4.20;99.90;;;;;;4997832;28;20113;-53
2021/11/29 11:42:42;;;;;;;11.02;6.47;;;4.20;99.90;;;;;;4989336;28;20307;-53
2021/11/29 11:45:10;;;;;;;11.27;5.78;;;4.10;99.90;;;;;;4990819;28;20488;-54
2021/11/29 11:47:36;;;;;;;10.43;6.10;;;4.10;99.90;;;;;;4996763;28;20038;-54
2021/11/29 11:50:05;;;;;;;11.38;6.18;;;4.10;99.90;;;;;;4996649;28;20387;-54
2021/11/29 11:52:32;;;;;;;12.43;5.88;;;4.10;99.90;;;;;;5005373;28;20116;-54
2021/11/29 11:55:00;;;;;;;14.63;7.10;;;4.10;99.90;;;;;;4989914;28;20456;-55
2021/11/29 11:57:27;;;;;;;12.52;6.20;;;4.20;99.90;;;;;;4995475;28;20037;-54
2021/11/29 12:00:14;;;;;;;9.23;6.30;;;4.30;99.90;;;;;;4998800;28;20022;-55
2021/11/29 12:02:49;;;;;;;11.25;6.20;;;4.40;99.90;;;;;;4995872;28;20038;-54
2021/11/29 12:05:17;;;;;;;10.82;6.97;;;4.40;99.90;;;;;;5005214;28;20104;-52
2021/11/29 12:07:45;;;;;;;12.45;6.93;;;4.40;99.90;;;;;;5000104;28;20056;-50
2021/11/29 12:10:44;;;;;;;13.10;6.78;;;4.40;99.90;;;;;;5010680;28;20411;-54
2021/11/29 12:13:13;;;;;;;12.07;7.45;;;4.50;99.90;;;;;;4992252;28;20387;-56
2021/11/29 12:15:39;;;;;;;11.00;6.78;;;4.60;99.90;;;;;;4992283;28;20031;-52
2021/11/29 12:18:05;;;;;;;13.43;7.88;;;4.70;99.90;;;;;;5007134;28;20466;-52
2021/11/29 12:20:31;;;;;;;15.20;7.90;;;4.70;99.90;;;;;;5002967;28;20026;-51
2021/11/29 12:22:57;;;;;;;11.52;7.00;;;4.70;99.90;;;;;;4993161;28;20369;-51
2021/11/29 12:25:24;;;;;;;12.02;7.57;;;4.60;99.90;;;;;;5000372;28;20115;-55
2021/11/29 12:28:02;;;;;;;11.45;6.82;;;4.70;99.90;;;;;;5005520;28;20032;-54
2021/11/29 12:30:42;;;;;;;11.38;7.43;;;4.70;99.90;;;;;;5009666;28;20024;-54
2021/11/29 12:33:11;;;;;;;12.20;7.32;;;4.80;99.90;;;;;;5005865;28;20041;-54
2021/11/29 12:36:02;;;;;;;13.57;7.90;;;4.60;99.90;;;;;;5008952;28;20042;-54
2021/11/29 12:38:43;;;;;;;16.30;9.60;;;4.60;99.90;;;;;;5007456;28;20419;-53
2021/11/29 12:41:09;;;;;;;15.98;8.77;;;4.40;99.90;;;;;;4997704;28;20634;-51
2021/11/29 12:43:46;;;;;;;18.33;9.10;;;4.40;99.90;;;;;;5003093;28;20038;-55